sensor_id;sensor_type;location;lat;lon;timestamp;P1;durP1;ratioP1;P2;durP2;ratioP2
76608;SDS011;65928;53.936;27.540;2023-03-19T00:01:16;4.43;;;2.35;;
76608;SDS011;65928;53.936;27.540;2023-03-19T00:03:42;6.20;;;2.75;;
76608;SDS011;65928;53.936;27.540;2023-03-19T00:06:07;5.38;;;2.65;;
76608;SDS011;65928;53.936;27.540;2023-03-19T00:08:32;5.65;;;2.78;;
76608;SDS011;65928;53.936;27.540;2023-03-19T00:10:58;5.97;;;2.42;;
76608;SDS011;65928;53.936;27.540;2023-03-19T00:13:23;5.85;;;2.80;;
76608;SDS011;65928;53.936;27.540;2023-03-19T00:15:49;5.93;;;2.78;;
76608;SDS011;65928;53.936;27.540;2023-03-19T00:18:14;4.13;;;2.10;;
76608;SDS011;65928;53.936;27.540;2023-03-19T00:20:40;5.63;;;2.65;;
76608;SDS011;65928;53.936;27.540;2023-03-19T00:23:05;4.88;;;2.50;;
76608;SDS011;65928;53.936;27.540;2023-03-19T00:25:31;5.75;;;2.97;;
76608;SDS011;65928;53.936;27.540;2023-03-19T00:27:57;6.13;;;2.85;;
76608;SDS011;65928;53.936;27.540;2023-03-19T00:30:23;4.63;;;2.17;;
76608;SDS011;65928;53.936;27.540;2023-03-19T00:32:48;4.53;;;2.05;;
76608;SDS011;65928;53.936;27.540;2023-03-19T00:35:14;5.65;;;2.90;;
76608;SDS011;65928;53.936;27.540;2023-03-19T00:37:39;4.30;;;2.28;;
76608;SDS011;65928;53.936;27.540;2023-03-19T00:40:06;4.90;;;2.63;;
76608;SDS011;65928;53.936;27.540;2023-03-19T00:42:32;7.13;;;2.80;;
76608;SDS011;65928;53.936;27.540;2023-03-19T00:44:58;4.68;;;2.90;;
76608;SDS011;65928;53.936;27.540;2023-03-19T00:47:23;5.75;;;2.05;;
76608;SDS011;65928;53.936;27.540;2023-03-19T00:49:49;4.45;;;2.53;;
76608;SDS011;65928;53.936;27.540;2023-03-19T00:52:14;6.68;;;3.00;;
76608;SDS011;65928;53.936;27.540;2023-03-19T00:54:40;6.20;;;2.65;;
76608;SDS011;65928;53.936;27.540;2023-03-19T00:57:06;5.90;;;2.70;;
76608;SDS011;65928;53.936;27.540;2023-03-19T00:59:31;5.45;;;2.92;;
76608;SDS011;65928;53.936;27.540;2023-03-19T01:01:57;4.95;;;3.15;;
76608;SDS011;65928;53.936;27.540;2023-03-19T01:04:22;5.10;;;2.67;;
76608;SDS011;65928;53.936;27.540;2023-03-19T01:06:48;6.63;;;3.60;;
76608;SDS011;65928;53.936;27.540;2023-03-19T01:09:13;7.05;;;2.67;;
76608;SDS011;65928;53.936;27.540;2023-03-19T01:11:39;6.80;;;2.50;;
76608;SDS011;65928;53.936;27.540;2023-03-19T01:14:05;7.57;;;2.80;;
76608;SDS011;65928;53.936;27.540;2023-03-19T01:16:30;5.70;;;2.72;;
76608;SDS011;65928;53.936;27.540;2023-03-19T01:18:55;5.53;;;2.70;;
76608;SDS011;65928;53.936;27.540;2023-03-19T01:21:21;4.15;;;2.70;;
76608;SDS011;65928;53.936;27.540;2023-03-19T01:23:46;6.38;;;2.60;;
76608;SDS011;65928;53.936;27.540;2023-03-19T01:26:11;6.03;;;3.10;;
76608;SDS011;65928;53.936;27.540;2023-03-19T01:28:37;5.30;;;2.58;;
76608;SDS011;65928;53.936;27.540;2023-03-19T01:31:06;4.82;;;2.60;;
76608;SDS011;65928;53.936;27.540;2023-03-19T01:33:32;6.72;;;3.53;;
76608;SDS011;65928;53.936;27.540;2023-03-19T01:35:58;6.00;;;2.60;;
76608;SDS011;65928;53.936;27.540;2023-03-19T01:38:27;6.95;;;2.72;;
76608;SDS011;65928;53.936;27.540;2023-03-19T01:40:52;5.07;;;2.72;;
76608;SDS011;65928;53.936;27.540;2023-03-19T01:43:19;8.45;;;3.13;;
76608;SDS011;65928;53.936;27.540;2023-03-19T01:45:46;5.57;;;2.50;;
76608;SDS011;65928;53.936;27.540;2023-03-19T01:50:56;7.68;;;3.28;;
76608;SDS011;65928;53.936;27.540;2023-03-19T01:53:24;8.88;;;2.75;;
76608;SDS011;65928;53.936;27.540;2023-03-19T01:55:56;4.75;;;2.67;;
76608;SDS011;65928;53.936;27.540;2023-03-19T02:00:52;7.63;;;3.03;;
76608;SDS011;65928;53.936;27.540;2023-03-19T02:03:19;6.38;;;3.15;;
76608;SDS011;65928;53.936;27.540;2023-03-19T02:05:44;4.80;;;3.10;;
76608;SDS011;65928;53.936;27.540;2023-03-19T02:08:13;7.07;;;3.42;;
76608;SDS011;65928;53.936;27.540;2023-03-19T02:10:40;8.73;;;3.38;;
76608;SDS011;65928;53.936;27.540;2023-03-19T02:13:08;5.15;;;2.70;;
76608;SDS011;65928;53.936;27.540;2023-03-19T02:15:33;6.25;;;2.63;;
76608;SDS011;65928;53.936;27.540;2023-03-19T02:17:59;5.18;;;3.15;;
76608;SDS011;65928;53.936;27.540;2023-03-19T02:23:03;6.18;;;3.17;;
76608;SDS011;65928;53.936;27.540;2023-03-19T02:26:05;8.15;;;3.40;;
76608;SDS011;65928;53.936;27.540;2023-03-19T02:28:27;8.38;;;3.50;;
76608;SDS011;65928;53.936;27.540;2023-03-19T02:30:54;9.18;;;3.45;;
76608;SDS011;65928;53.936;27.540;2023-03-19T02:33:19;5.80;;;2.88;;
76608;SDS011;65928;53.936;27.540;2023-03-19T02:35:46;8.38;;;3.30;;
76608;SDS011;65928;53.936;27.540;2023-03-19T02:38:14;5.93;;;2.78;;
76608;SDS011;65928;53.936;27.540;2023-03-19T02:40:42;8.35;;;3.08;;
76608;SDS011;65928;53.936;27.540;2023-03-19T02:43:12;5.78;;;3.20;;
76608;SDS011;65928;53.936;27.540;2023-03-19T02:45:37;5.93;;;2.50;;
76608;SDS011;65928;53.936;27.540;2023-03-19T02:48:03;5.75;;;2.28;;
76608;SDS011;65928;53.936;27.540;2023-03-19T02:50:29;8.85;;;3.35;;
76608;SDS011;65928;53.936;27.540;2023-03-19T02:52:54;5.63;;;2.75;;
76608;SDS011;65928;53.936;27.540;2023-03-19T02:55:20;6.72;;;3.53;;
76608;SDS011;65928;53.936;27.540;2023-03-19T02:57:46;6.07;;;3.00;;
76608;SDS011;65928;53.936;27.540;2023-03-19T03:00:12;6.00;;;2.92;;
76608;SDS011;65928;53.936;27.540;2023-03-19T03:02:38;6.13;;;3.00;;
76608;SDS011;65928;53.936;27.540;2023-03-19T03:05:05;7.95;;;4.03;;
76608;SDS011;65928;53.936;27.540;2023-03-19T03:07:30;7.57;;;3.05;;
76608;SDS011;65928;53.936;27.540;2023-03-19T03:09:57;6.82;;;3.65;;
76608;SDS011;65928;53.936;27.540;2023-03-19T03:12:22;6.20;;;3.20;;
76608;SDS011;65928;53.936;27.540;2023-03-19T03:14:47;6.68;;;3.78;;
76608;SDS011;65928;53.936;27.540;2023-03-19T03:17:13;6.03;;;3.55;;
76608;SDS011;65928;53.936;27.540;2023-03-19T03:19:39;6.40;;;3.78;;
76608;SDS011;65928;53.936;27.540;2023-03-19T03:22:04;5.85;;;3.40;;
76608;SDS011;65928;53.936;27.540;2023-03-19T03:24:30;6.40;;;3.10;;
76608;SDS011;65928;53.936;27.540;2023-03-19T03:26:55;8.05;;;4.35;;
76608;SDS011;65928;53.936;27.540;2023-03-19T03:29:21;6.85;;;4.30;;
76608;SDS011;65928;53.936;27.540;2023-03-19T03:31:46;7.57;;;3.90;;
76608;SDS011;65928;53.936;27.540;2023-03-19T03:34:12;7.13;;;3.30;;
76608;SDS011;65928;53.936;27.540;2023-03-19T03:36:37;5.45;;;3.35;;
76608;SDS011;65928;53.936;27.540;2023-03-19T03:39:02;6.78;;;4.22;;
76608;SDS011;65928;53.936;27.540;2023-03-19T03:41:28;5.93;;;3.90;;
76608;SDS011;65928;53.936;27.540;2023-03-19T03:43:54;7.80;;;3.55;;
76608;SDS011;65928;53.936;27.540;2023-03-19T03:46:19;8.95;;;3.00;;
76608;SDS011;65928;53.936;27.540;2023-03-19T03:48:44;5.80;;;3.40;;
76608;SDS011;65928;53.936;27.540;2023-03-19T03:51:10;7.07;;;3.67;;
76608;SDS011;65928;53.936;27.540;2023-03-19T03:53:36;8.38;;;3.55;;
76608;SDS011;65928;53.936;27.540;2023-03-19T03:56:01;7.05;;;3.33;;
76608;SDS011;65928;53.936;27.540;2023-03-19T03:58:26;6.43;;;3.78;;
76608;SDS011;65928;53.936;27.540;2023-03-19T04:00:52;9.30;;;4.28;;
76608;SDS011;65928;53.936;27.540;2023-03-19T04:03:18;6.75;;;3.83;;
76608;SDS011;65928;53.936;27.540;2023-03-19T04:05:44;8.95;;;3.70;;
76608;SDS011;65928;53.936;27.540;2023-03-19T04:08:09;7.07;;;4.07;;
76608;SDS011;65928;53.936;27.540;2023-03-19T04:10:38;7.63;;;3.90;;
76608;SDS011;65928;53.936;27.540;2023-03-19T04:13:04;7.00;;;3.88;;
76608;SDS011;65928;53.936;27.540;2023-03-19T04:15:30;7.18;;;3.28;;
76608;SDS011;65928;53.936;27.540;2023-03-19T04:17:55;7.13;;;3.72;;
76608;SDS011;65928;53.936;27.540;2023-03-19T04:20:21;7.28;;;3.92;;
76608;SDS011;65928;53.936;27.540;2023-03-19T04:22:47;7.80;;;3.95;;
76608;SDS011;65928;53.936;27.540;2023-03-19T04:25:13;8.05;;;3.90;;
76608;SDS011;65928;53.936;27.540;2023-03-19T04:27:38;7.68;;;4.15;;
76608;SDS011;65928;53.936;27.540;2023-03-19T04:30:03;7.80;;;4.15;;
76608;SDS011;65928;53.936;27.540;2023-03-19T04:32:29;9.25;;;4.47;;
76608;SDS011;65928;53.936;27.540;2023-03-19T04:34:55;7.53;;;4.15;;
76608;SDS011;65928;53.936;27.540;2023-03-19T04:37:22;5.72;;;3.58;;
76608;SDS011;65928;53.936;27.540;2023-03-19T04:39:47;9.02;;;4.45;;
76608;SDS011;65928;53.936;27.540;2023-03-19T04:42:13;7.03;;;4.47;;
76608;SDS011;65928;53.936;27.540;2023-03-19T04:44:39;6.97;;;3.92;;
76608;SDS011;65928;53.936;27.540;2023-03-19T04:47:04;7.25;;;4.20;;
76608;SDS011;65928;53.936;27.540;2023-03-19T04:49:30;10.82;;;4.13;;
76608;SDS011;65928;53.936;27.540;2023-03-19T04:51:56;8.95;;;3.65;;
76608;SDS011;65928;53.936;27.540;2023-03-19T04:54:22;6.93;;;4.43;;
76608;SDS011;65928;53.936;27.540;2023-03-19T04:56:48;6.68;;;4.20;;
76608;SDS011;65928;53.936;27.540;2023-03-19T04:59:13;7.57;;;3.63;;
76608;SDS011;65928;53.936;27.540;2023-03-19T05:01:39;8.43;;;3.80;;
76608;SDS011;65928;53.936;27.540;2023-03-19T05:04:04;9.45;;;4.93;;
76608;SDS011;65928;53.936;27.540;2023-03-19T05:06:30;9.88;;;4.93;;
76608;SDS011;65928;53.936;27.540;2023-03-19T05:08:56;9.73;;;5.82;;
76608;SDS011;65928;53.936;27.540;2023-03-19T05:11:21;9.88;;;4.68;;
76608;SDS011;65928;53.936;27.540;2023-03-19T05:13:46;7.93;;;4.55;;
76608;SDS011;65928;53.936;27.540;2023-03-19T05:16:12;8.77;;;4.65;;
76608;SDS011;65928;53.936;27.540;2023-03-19T05:18:37;8.02;;;5.03;;
76608;SDS011;65928;53.936;27.540;2023-03-19T05:21:03;8.57;;;4.97;;
76608;SDS011;65928;53.936;27.540;2023-03-19T05:23:28;7.93;;;5.07;;
76608;SDS011;65928;53.936;27.540;2023-03-19T05:25:54;6.90;;;4.47;;
76608;SDS011;65928;53.936;27.540;2023-03-19T05:28:22;10.15;;;5.88;;
76608;SDS011;65928;53.936;27.540;2023-03-19T05:30:47;11.82;;;5.95;;
76608;SDS011;65928;53.936;27.540;2023-03-19T05:33:13;9.73;;;5.78;;
76608;SDS011;65928;53.936;27.540;2023-03-19T05:35:38;9.88;;;5.75;;
76608;SDS011;65928;53.936;27.540;2023-03-19T05:38:04;10.95;;;5.57;;
76608;SDS011;65928;53.936;27.540;2023-03-19T05:40:30;9.30;;;5.43;;
76608;SDS011;65928;53.936;27.540;2023-03-19T05:42:56;8.90;;;5.07;;
76608;SDS011;65928;53.936;27.540;2023-03-19T05:45:21;8.02;;;4.75;;
76608;SDS011;65928;53.936;27.540;2023-03-19T05:47:47;11.38;;;5.32;;
76608;SDS011;65928;53.936;27.540;2023-03-19T05:50:14;8.07;;;5.20;;
76608;SDS011;65928;53.936;27.540;2023-03-19T05:52:39;8.90;;;4.63;;
76608;SDS011;65928;53.936;27.540;2023-03-19T05:55:05;10.45;;;6.20;;
76608;SDS011;65928;53.936;27.540;2023-03-19T05:57:31;9.85;;;5.88;;
76608;SDS011;65928;53.936;27.540;2023-03-19T05:59:56;7.78;;;5.13;;
76608;SDS011;65928;53.936;27.540;2023-03-19T06:02:22;9.45;;;5.45;;
76608;SDS011;65928;53.936;27.540;2023-03-19T06:04:48;9.43;;;5.70;;
76608;SDS011;65928;53.936;27.540;2023-03-19T06:07:13;11.55;;;7.15;;
76608;SDS011;65928;53.936;27.540;2023-03-19T06:09:38;10.77;;;5.72;;
76608;SDS011;65928;53.936;27.540;2023-03-19T06:12:05;11.70;;;6.03;;
76608;SDS011;65928;53.936;27.540;2023-03-19T06:14:31;12.23;;;6.90;;
76608;SDS011;65928;53.936;27.540;2023-03-19T06:16:56;10.07;;;5.93;;
76608;SDS011;65928;53.936;27.540;2023-03-19T06:19:22;12.45;;;6.40;;
76608;SDS011;65928;53.936;27.540;2023-03-19T06:21:47;12.90;;;7.10;;
76608;SDS011;65928;53.936;27.540;2023-03-19T06:24:12;13.38;;;9.00;;
76608;SDS011;65928;53.936;27.540;2023-03-19T06:26:38;13.45;;;8.27;;
76608;SDS011;65928;53.936;27.540;2023-03-19T06:29:03;11.35;;;6.55;;
76608;SDS011;65928;53.936;27.540;2023-03-19T06:31:29;11.45;;;6.63;;
76608;SDS011;65928;53.936;27.540;2023-03-19T06:33:54;10.85;;;6.28;;
76608;SDS011;65928;53.936;27.540;2023-03-19T06:36:20;12.75;;;7.55;;
76608;SDS011;65928;53.936;27.540;2023-03-19T06:38:45;11.48;;;7.93;;
76608;SDS011;65928;53.936;27.540;2023-03-19T06:41:11;15.70;;;8.57;;
76608;SDS011;65928;53.936;27.540;2023-03-19T06:43:36;12.15;;;8.63;;
76608;SDS011;65928;53.936;27.540;2023-03-19T06:46:04;11.63;;;6.93;;
76608;SDS011;65928;53.936;27.540;2023-03-19T06:48:31;11.70;;;7.80;;
76608;SDS011;65928;53.936;27.540;2023-03-19T06:50:57;10.95;;;6.72;;
76608;SDS011;65928;53.936;27.540;2023-03-19T06:53:22;11.05;;;6.80;;
76608;SDS011;65928;53.936;27.540;2023-03-19T06:55:47;10.43;;;6.57;;
76608;SDS011;65928;53.936;27.540;2023-03-19T06:58:13;13.43;;;6.75;;
76608;SDS011;65928;53.936;27.540;2023-03-19T07:00:38;11.05;;;8.02;;
76608;SDS011;65928;53.936;27.540;2023-03-19T07:03:03;10.35;;;6.72;;
76608;SDS011;65928;53.936;27.540;2023-03-19T07:05:29;11.32;;;7.85;;
76608;SDS011;65928;53.936;27.540;2023-03-19T07:07:54;12.13;;;8.40;;
76608;SDS011;65928;53.936;27.540;2023-03-19T07:10:20;13.50;;;8.32;;
76608;SDS011;65928;53.936;27.540;2023-03-19T07:12:46;13.90;;;8.40;;
76608;SDS011;65928;53.936;27.540;2023-03-19T07:15:12;12.35;;;8.43;;
76608;SDS011;65928;53.936;27.540;2023-03-19T07:17:38;15.77;;;9.45;;
76608;SDS011;65928;53.936;27.540;2023-03-19T07:20:03;13.57;;;8.60;;
76608;SDS011;65928;53.936;27.540;2023-03-19T07:22:29;13.30;;;8.32;;
76608;SDS011;65928;53.936;27.540;2023-03-19T07:24:55;12.77;;;9.15;;
76608;SDS011;65928;53.936;27.540;2023-03-19T07:27:20;14.40;;;10.10;;
76608;SDS011;65928;53.936;27.540;2023-03-19T07:29:46;12.95;;;8.68;;
76608;SDS011;65928;53.936;27.540;2023-03-19T07:32:11;12.73;;;9.20;;
76608;SDS011;65928;53.936;27.540;2023-03-19T07:34:36;12.27;;;8.05;;
76608;SDS011;65928;53.936;27.540;2023-03-19T07:37:02;12.52;;;8.68;;
76608;SDS011;65928;53.936;27.540;2023-03-19T07:39:27;14.55;;;9.35;;
76608;SDS011;65928;53.936;27.540;2023-03-19T07:41:52;14.27;;;9.57;;
76608;SDS011;65928;53.936;27.540;2023-03-19T07:44:18;16.08;;;9.80;;
76608;SDS011;65928;53.936;27.540;2023-03-19T07:46:43;15.27;;;9.95;;
76608;SDS011;65928;53.936;27.540;2023-03-19T07:49:09;12.73;;;9.25;;
76608;SDS011;65928;53.936;27.540;2023-03-19T07:51:34;14.77;;;9.55;;
76608;SDS011;65928;53.936;27.540;2023-03-19T07:54:00;15.65;;;8.77;;
76608;SDS011;65928;53.936;27.540;2023-03-19T07:56:26;12.85;;;9.57;;
76608;SDS011;65928;53.936;27.540;2023-03-19T07:58:51;13.95;;;9.27;;
76608;SDS011;65928;53.936;27.540;2023-03-19T08:01:17;12.80;;;8.48;;
76608;SDS011;65928;53.936;27.540;2023-03-19T08:03:42;11.57;;;8.35;;
76608;SDS011;65928;53.936;27.540;2023-03-19T08:06:08;13.35;;;7.97;;
76608;SDS011;65928;53.936;27.540;2023-03-19T08:08:33;13.38;;;8.77;;
76608;SDS011;65928;53.936;27.540;2023-03-19T08:10:59;13.45;;;8.70;;
76608;SDS011;65928;53.936;27.540;2023-03-19T08:13:25;12.05;;;7.68;;
76608;SDS011;65928;53.936;27.540;2023-03-19T08:15:51;13.48;;;9.48;;
76608;SDS011;65928;53.936;27.540;2023-03-19T08:18:17;12.80;;;9.23;;
76608;SDS011;65928;53.936;27.540;2023-03-19T08:20:46;13.32;;;8.40;;
76608;SDS011;65928;53.936;27.540;2023-03-19T08:23:13;11.48;;;7.75;;
76608;SDS011;65928;53.936;27.540;2023-03-19T08:25:40;13.68;;;9.23;;
76608;SDS011;65928;53.936;27.540;2023-03-19T08:28:05;12.70;;;8.43;;
76608;SDS011;65928;53.936;27.540;2023-03-19T08:30:33;14.35;;;8.88;;
76608;SDS011;65928;53.936;27.540;2023-03-19T08:32:59;13.05;;;8.35;;
76608;SDS011;65928;53.936;27.540;2023-03-19T08:35:25;14.15;;;8.77;;
76608;SDS011;65928;53.936;27.540;2023-03-19T08:37:53;13.93;;;9.05;;
76608;SDS011;65928;53.936;27.540;2023-03-19T08:40:19;18.02;;;8.50;;
76608;SDS011;65928;53.936;27.540;2023-03-19T08:42:45;13.90;;;8.70;;
76608;SDS011;65928;53.936;27.540;2023-03-19T08:45:11;12.82;;;9.18;;
76608;SDS011;65928;53.936;27.540;2023-03-19T08:47:38;11.27;;;7.85;;
76608;SDS011;65928;53.936;27.540;2023-03-19T08:50:03;11.60;;;8.35;;
76608;SDS011;65928;53.936;27.540;2023-03-19T08:52:30;14.95;;;9.07;;
76608;SDS011;65928;53.936;27.540;2023-03-19T08:54:57;11.35;;;7.63;;
76608;SDS011;65928;53.936;27.540;2023-03-19T08:57:22;11.15;;;8.35;;
76608;SDS011;65928;53.936;27.540;2023-03-19T08:59:48;13.95;;;8.88;;
76608;SDS011;65928;53.936;27.540;2023-03-19T09:02:13;14.18;;;8.90;;
76608;SDS011;65928;53.936;27.540;2023-03-19T09:04:39;13.43;;;7.30;;
76608;SDS011;65928;53.936;27.540;2023-03-19T09:07:05;11.50;;;7.97;;
76608;SDS011;65928;53.936;27.540;2023-03-19T09:09:31;12.77;;;8.63;;
76608;SDS011;65928;53.936;27.540;2023-03-19T09:11:56;11.27;;;8.75;;
76608;SDS011;65928;53.936;27.540;2023-03-19T09:14:22;12.70;;;9.18;;
76608;SDS011;65928;53.936;27.540;2023-03-19T09:16:47;13.32;;;8.77;;
76608;SDS011;65928;53.936;27.540;2023-03-19T09:19:13;18.83;;;9.98;;
76608;SDS011;65928;53.936;27.540;2023-03-19T09:21:38;12.48;;;8.80;;
76608;SDS011;65928;53.936;27.540;2023-03-19T09:24:04;12.70;;;8.68;;
76608;SDS011;65928;53.936;27.540;2023-03-19T09:26:29;13.32;;;8.63;;
76608;SDS011;65928;53.936;27.540;2023-03-19T09:28:55;11.93;;;8.88;;
76608;SDS011;65928;53.936;27.540;2023-03-19T09:31:21;11.57;;;8.15;;
76608;SDS011;65928;53.936;27.540;2023-03-19T09:33:46;14.40;;;8.77;;
76608;SDS011;65928;53.936;27.540;2023-03-19T09:36:12;11.40;;;8.35;;
76608;SDS011;65928;53.936;27.540;2023-03-19T09:38:37;12.23;;;8.48;;
76608;SDS011;65928;53.936;27.540;2023-03-19T09:41:08;11.70;;;7.88;;
76608;SDS011;65928;53.936;27.540;2023-03-19T09:46:03;11.10;;;8.23;;
76608;SDS011;65928;53.936;27.540;2023-03-19T09:48:34;14.43;;;8.77;;
76608;SDS011;65928;53.936;27.540;2023-03-19T09:51:09;9.57;;;7.43;;
76608;SDS011;65928;53.936;27.540;2023-03-19T09:53:48;10.32;;;7.13;;
76608;SDS011;65928;53.936;27.540;2023-03-19T09:56:20;11.18;;;7.82;;
76608;SDS011;65928;53.936;27.540;2023-03-19T09:58:46;11.50;;;8.23;;
76608;SDS011;65928;53.936;27.540;2023-03-19T10:01:16;11.90;;;8.52;;
76608;SDS011;65928;53.936;27.540;2023-03-19T10:06:40;11.57;;;7.93;;
76608;SDS011;65928;53.936;27.540;2023-03-19T10:17:47;9.00;;;6.45;;
76608;SDS011;65928;53.936;27.540;2023-03-19T10:25:47;9.23;;;6.75;;
76608;SDS011;65928;53.936;27.540;2023-03-19T10:28:16;8.25;;;5.97;;
76608;SDS011;65928;53.936;27.540;2023-03-19T10:30:46;9.40;;;7.07;;
76608;SDS011;65928;53.936;27.540;2023-03-19T10:33:22;9.77;;;7.50;;
76608;SDS011;65928;53.936;27.540;2023-03-19T10:36:11;9.60;;;6.93;;
76608;SDS011;65928;53.936;27.540;2023-03-19T10:38:40;12.85;;;7.70;;
76608;SDS011;65928;53.936;27.540;2023-03-19T10:43:42;10.25;;;7.45;;
76608;SDS011;65928;53.936;27.540;2023-03-19T10:46:12;10.95;;;8.00;;
76608;SDS011;65928;53.936;27.540;2023-03-19T10:48:43;10.85;;;7.85;;
76608;SDS011;65928;53.936;27.540;2023-03-19T10:51:11;11.73;;;8.13;;
76608;SDS011;65928;53.936;27.540;2023-03-19T10:53:40;10.20;;;7.15;;
76608;SDS011;65928;53.936;27.540;2023-03-19T10:56:27;10.15;;;8.48;;
76608;SDS011;65928;53.936;27.540;2023-03-19T10:59:04;12.07;;;7.63;;
76608;SDS011;65928;53.936;27.540;2023-03-19T11:01:35;10.15;;;8.02;;
76608;SDS011;65928;53.936;27.540;2023-03-19T11:04:14;12.80;;;8.82;;
76608;SDS011;65928;53.936;27.540;2023-03-19T11:06:42;11.25;;;8.40;;
76608;SDS011;65928;53.936;27.540;2023-03-19T11:12:04;10.70;;;8.77;;
76608;SDS011;65928;53.936;27.540;2023-03-19T11:14:40;10.38;;;7.93;;
76608;SDS011;65928;53.936;27.540;2023-03-19T11:22:39;10.90;;;7.68;;
76608;SDS011;65928;53.936;27.540;2023-03-19T11:27:56;9.45;;;6.88;;
76608;SDS011;65928;53.936;27.540;2023-03-19T11:30:24;8.48;;;6.82;;
76608;SDS011;65928;53.936;27.540;2023-03-19T11:35:37;7.68;;;5.68;;
76608;SDS011;65928;53.936;27.540;2023-03-19T11:38:27;7.72;;;5.25;;
76608;SDS011;65928;53.936;27.540;2023-03-19T11:41:07;6.93;;;5.18;;
76608;SDS011;65928;53.936;27.540;2023-03-19T11:43:47;7.60;;;4.80;;
76608;SDS011;65928;53.936;27.540;2023-03-19T11:48:49;6.93;;;5.15;;
76608;SDS011;65928;53.936;27.540;2023-03-19T11:51:31;11.45;;;6.32;;
76608;SDS011;65928;53.936;27.540;2023-03-19T11:54:04;7.50;;;4.90;;
76608;SDS011;65928;53.936;27.540;2023-03-19T11:56:47;8.18;;;5.15;;
76608;SDS011;65928;53.936;27.540;2023-03-19T12:07:53;5.68;;;3.97;;
76608;SDS011;65928;53.936;27.540;2023-03-19T12:10:41;5.30;;;4.22;;
76608;SDS011;65928;53.936;27.540;2023-03-19T12:13:20;6.07;;;4.72;;
76608;SDS011;65928;53.936;27.540;2023-03-19T12:21:27;7.35;;;4.90;;
76608;SDS011;65928;53.936;27.540;2023-03-19T12:24:26;7.28;;;5.22;;
76608;SDS011;65928;53.936;27.540;2023-03-19T12:35:22;6.57;;;4.85;;
76608;SDS011;65928;53.936;27.540;2023-03-19T12:42:46;6.03;;;4.22;;
76608;SDS011;65928;53.936;27.540;2023-03-19T12:45:22;8.57;;;4.50;;
76608;SDS011;65928;53.936;27.540;2023-03-19T12:47:53;7.10;;;4.30;;
76608;SDS011;65928;53.936;27.540;2023-03-19T12:50:26;6.57;;;5.00;;
76608;SDS011;65928;53.936;27.540;2023-03-19T12:52:55;7.38;;;4.78;;
76608;SDS011;65928;53.936;27.540;2023-03-19T12:55:26;5.43;;;3.88;;
76608;SDS011;65928;53.936;27.540;2023-03-19T12:58:07;9.50;;;4.63;;
76608;SDS011;65928;53.936;27.540;2023-03-19T13:00:52;5.75;;;4.13;;
76608;SDS011;65928;53.936;27.540;2023-03-19T13:03:36;5.32;;;4.50;;
76608;SDS011;65928;53.936;27.540;2023-03-19T13:06:20;5.03;;;3.53;;
76608;SDS011;65928;53.936;27.540;2023-03-19T13:08:59;5.60;;;3.72;;
76608;SDS011;65928;53.936;27.540;2023-03-19T13:13:58;6.57;;;4.20;;
76608;SDS011;65928;53.936;27.540;2023-03-19T13:16:47;6.07;;;3.67;;
76608;SDS011;65928;53.936;27.540;2023-03-19T13:19:27;6.40;;;4.63;;
76608;SDS011;65928;53.936;27.540;2023-03-19T13:22:00;6.50;;;5.00;;
76608;SDS011;65928;53.936;27.540;2023-03-19T13:24:31;9.38;;;5.65;;
76608;SDS011;65928;53.936;27.540;2023-03-19T13:27:00;7.78;;;5.00;;
76608;SDS011;65928;53.936;27.540;2023-03-19T13:29:30;9.82;;;5.22;;
76608;SDS011;65928;53.936;27.540;2023-03-19T13:32:06;8.07;;;4.85;;
76608;SDS011;65928;53.936;27.540;2023-03-19T13:34:46;7.45;;;5.57;;
76608;SDS011;65928;53.936;27.540;2023-03-19T13:39:52;8.98;;;5.70;;
76608;SDS011;65928;53.936;27.540;2023-03-19T13:42:37;8.60;;;5.38;;
76608;SDS011;65928;53.936;27.540;2023-03-19T13:51:24;7.53;;;5.75;;
76608;SDS011;65928;53.936;27.540;2023-03-19T13:53:53;8.60;;;6.07;;
76608;SDS011;65928;53.936;27.540;2023-03-19T13:56:25;8.05;;;5.82;;
76608;SDS011;65928;53.936;27.540;2023-03-19T13:58:52;11.40;;;6.38;;
76608;SDS011;65928;53.936;27.540;2023-03-19T14:01:48;10.27;;;6.30;;
76608;SDS011;65928;53.936;27.540;2023-03-19T14:04:26;9.63;;;6.35;;
76608;SDS011;65928;53.936;27.540;2023-03-19T14:06:55;8.30;;;5.50;;
76608;SDS011;65928;53.936;27.540;2023-03-19T14:12:28;9.48;;;6.53;;
76608;SDS011;65928;53.936;27.540;2023-03-19T14:15:02;9.88;;;6.00;;
76608;SDS011;65928;53.936;27.540;2023-03-19T14:22:54;7.93;;;6.20;;
76608;SDS011;65928;53.936;27.540;2023-03-19T14:25:24;10.35;;;6.30;;
76608;SDS011;65928;53.936;27.540;2023-03-19T14:27:55;9.93;;;6.43;;
76608;SDS011;65928;53.936;27.540;2023-03-19T14:32:48;7.95;;;6.68;;
76608;SDS011;65928;53.936;27.540;2023-03-19T14:35:16;7.93;;;6.55;;
76608;SDS011;65928;53.936;27.540;2023-03-19T14:37:47;9.55;;;5.93;;
76608;SDS011;65928;53.936;27.540;2023-03-19T14:40:19;12.02;;;7.35;;
76608;SDS011;65928;53.936;27.540;2023-03-19T14:42:55;7.97;;;5.95;;
76608;SDS011;65928;53.936;27.540;2023-03-19T14:48:17;9.15;;;6.38;;
76608;SDS011;65928;53.936;27.540;2023-03-19T14:51:25;7.95;;;6.45;;
76608;SDS011;65928;53.936;27.540;2023-03-19T14:53:55;10.18;;;6.90;;
76608;SDS011;65928;53.936;27.540;2023-03-19T14:58:55;16.75;;;7.45;;
76608;SDS011;65928;53.936;27.540;2023-03-19T15:01:23;9.10;;;7.00;;
76608;SDS011;65928;53.936;27.540;2023-03-19T15:03:55;10.02;;;6.35;;
76608;SDS011;65928;53.936;27.540;2023-03-19T15:06:23;31.02;;;9.55;;
76608;SDS011;65928;53.936;27.540;2023-03-19T15:08:54;10.38;;;6.45;;
76608;SDS011;65928;53.936;27.540;2023-03-19T15:11:30;9.82;;;6.85;;
76608;SDS011;65928;53.936;27.540;2023-03-19T15:16:50;8.63;;;6.75;;
76608;SDS011;65928;53.936;27.540;2023-03-19T15:19:39;9.20;;;5.80;;
76608;SDS011;65928;53.936;27.540;2023-03-19T15:22:12;7.97;;;6.55;;
76608;SDS011;65928;53.936;27.540;2023-03-19T15:24:38;9.85;;;6.68;;
76608;SDS011;65928;53.936;27.540;2023-03-19T15:27:23;9.88;;;7.28;;
76608;SDS011;65928;53.936;27.540;2023-03-19T15:29:50;11.80;;;6.80;;
76608;SDS011;65928;53.936;27.540;2023-03-19T15:32:36;10.50;;;6.43;;
76608;SDS011;65928;53.936;27.540;2023-03-19T15:35:04;11.02;;;6.80;;
76608;SDS011;65928;53.936;27.540;2023-03-19T15:37:32;10.32;;;6.85;;
76608;SDS011;65928;53.936;27.540;2023-03-19T15:40:02;9.32;;;5.68;;
76608;SDS011;65928;53.936;27.540;2023-03-19T15:42:33;7.60;;;5.35;;
76608;SDS011;65928;53.936;27.540;2023-03-19T15:45:03;9.32;;;6.45;;
76608;SDS011;65928;53.936;27.540;2023-03-19T15:49:59;9.00;;;6.30;;
76608;SDS011;65928;53.936;27.540;2023-03-19T15:52:30;9.48;;;6.75;;
76608;SDS011;65928;53.936;27.540;2023-03-19T15:55:00;8.20;;;6.32;;
76608;SDS011;65928;53.936;27.540;2023-03-19T15:57:27;11.63;;;6.22;;
76608;SDS011;65928;53.936;27.540;2023-03-19T15:59:53;11.45;;;6.20;;
76608;SDS011;65928;53.936;27.540;2023-03-19T16:02:40;8.80;;;6.13;;
76608;SDS011;65928;53.936;27.540;2023-03-19T16:05:21;7.82;;;6.03;;
76608;SDS011;65928;53.936;27.540;2023-03-19T16:07:57;9.55;;;6.85;;
76608;SDS011;65928;53.936;27.540;2023-03-19T16:23:52;10.20;;;6.95;;
76608;SDS011;65928;53.936;27.540;2023-03-19T16:26:21;12.98;;;6.90;;
76608;SDS011;65928;53.936;27.540;2023-03-19T16:31:47;11.45;;;6.95;;
76608;SDS011;65928;53.936;27.540;2023-03-19T16:36:45;10.57;;;6.70;;
76608;SDS011;65928;53.936;27.540;2023-03-19T16:42:13;13.32;;;7.63;;
76608;SDS011;65928;53.936;27.540;2023-03-19T16:44:50;12.40;;;7.40;;